createdAt,value
2022-11-20T00:00:29.563Z,99.52
2022-11-20T00:01:29.575Z,99.21
2022-11-20T00:02:29.544Z,99.42
2022-11-20T00:03:29.538Z,99.52
2022-11-20T00:04:29.527Z,99.63
2022-11-20T00:05:29.526Z,99.42
2022-11-20T00:06:29.541Z,99.32
2022-11-20T00:07:29.596Z,99.10
2022-11-20T00:08:29.501Z,99.32
2022-11-20T00:09:29.494Z,99.42
2022-11-20T00:10:29.485Z,99.68
2022-11-20T00:11:29.508Z,99.79
2022-11-20T00:12:29.482Z,99.85
2022-11-20T00:13:29.484Z,99.74
2022-11-20T00:14:29.463Z,99.74
2022-11-20T00:15:29.452Z,99.32
2022-11-20T00:16:29.469Z,99.42
2022-11-20T00:17:29.426Z,99.85
2022-11-20T00:18:30.432Z,99.74
2022-11-20T00:19:29.425Z,99.36
2022-11-20T00:20:29.417Z,99.79
2022-11-20T00:21:29.439Z,99.52
2022-11-20T00:22:29.401Z,99.42
2022-11-20T00:23:29.396Z,99.68
2022-11-20T00:24:29.383Z,99.57
2022-11-20T00:25:29.377Z,99.74
2022-11-20T00:26:29.395Z,99.46
2022-11-20T00:27:29.373Z,99.68
2022-11-20T00:28:29.360Z,99.15
2022-11-20T00:29:29.348Z,99.21
2022-11-20T00:30:29.342Z,99.21
2022-11-20T00:31:29.358Z,99.99
2022-11-20T00:32:29.326Z,99.85
2022-11-20T00:33:29.320Z,99.79
2022-11-20T00:34:29.309Z,99.42
2022-11-20T00:35:29.307Z,99.46
2022-11-20T00:36:29.328Z,99.74
2022-11-20T00:37:29.291Z,99.74
2022-11-20T00:38:29.281Z,99.52
2022-11-20T00:39:29.282Z,99.36
2022-11-20T00:40:29.271Z,99.74
2022-11-20T00:41:29.288Z,99.89
2022-11-20T00:42:29.257Z,99.85
2022-11-20T00:43:29.250Z,99.99
2022-11-20T00:44:29.242Z,99.99
2022-11-20T00:45:29.237Z,99.99
2022-11-20T00:46:29.254Z,99.99
2022-11-20T00:47:29.217Z,99.99
2022-11-20T00:48:29.217Z,99.99
2022-11-20T00:49:29.208Z,99.99
2022-11-20T00:50:29.199Z,99.99
2022-11-20T00:51:29.219Z,99.99
2022-11-20T00:52:29.182Z,99.99
2022-11-20T00:53:29.175Z,99.99
2022-11-20T00:54:29.168Z,99.99
2022-11-20T00:55:29.160Z,99.99
2022-11-20T00:56:29.176Z,99.99
2022-11-20T00:57:29.147Z,99.99
2022-11-20T00:58:29.169Z,99.99
2022-11-20T00:59:29.135Z,99.99
2022-11-20T01:00:29.132Z,99.99
2022-11-20T01:01:29.186Z,99.99
2022-11-20T01:02:29.114Z,99.99
2022-11-20T01:03:29.103Z,99.99
2022-11-20T01:04:29.104Z,99.99
2022-11-20T01:05:29.095Z,99.99
2022-11-20T01:06:29.088Z,99.99
2022-11-20T01:07:29.137Z,99.99
2022-11-20T01:08:29.065Z,99.99
2022-11-20T01:09:29.059Z,99.99
2022-11-20T01:10:29.051Z,99.99
2022-11-20T01:11:29.050Z,99.99
2022-11-20T01:12:29.062Z,99.99
2022-11-20T01:13:29.034Z,99.99
2022-11-20T01:14:29.016Z,99.99
2022-11-20T01:15:30.015Z,99.99
2022-11-20T01:16:29.012Z,99.99
2022-11-20T01:17:29.025Z,99.99
2022-11-20T01:18:28.998Z,99.99
2022-11-20T01:19:28.997Z,99.99
2022-11-20T01:20:28.979Z,99.99
2022-11-20T01:21:28.976Z,99.99
2022-11-20T01:22:28.996Z,99.99
2022-11-20T01:23:28.970Z,99.99
2022-11-20T01:24:28.957Z,99.99
2022-11-20T01:25:28.951Z,99.99
2022-11-20T01:26:28.952Z,99.99
2022-11-20T01:27:28.960Z,99.99
2022-11-20T01:28:28.935Z,99.99
2022-11-20T01:29:28.924Z,99.99
2022-11-20T01:30:28.915Z,99.99
2022-11-20T01:31:28.909Z,99.99
2022-11-20T01:32:28.926Z,99.99
2022-11-20T01:33:28.889Z,99.99
2022-11-20T01:34:28.887Z,99.99
2022-11-20T01:35:28.882Z,99.99
2022-11-20T01:36:28.871Z,99.99
2022-11-20T01:37:28.890Z,99.93
2022-11-20T01:38:28.857Z,99.99
2022-11-20T01:39:28.851Z,99.99
2022-11-20T01:40:28.844Z,99.99
2022-11-20T01:41:28.837Z,99.99
2022-11-20T01:42:28.854Z,99.99
2022-11-20T01:43:28.826Z,99.99
2022-11-20T01:44:28.817Z,99.99
2022-11-20T01:45:28.807Z,99.99
2022-11-20T01:46:28.799Z,99.99
2022-11-20T01:47:28.823Z,99.99
2022-11-20T01:48:28.792Z,99.99
2022-11-20T01:49:28.778Z,99.99
2022-11-20T01:50:28.773Z,99.99
2022-11-20T01:51:28.763Z,99.99
2022-11-20T01:52:28.780Z,99.99
2022-11-20T01:53:28.750Z,99.99
2022-11-20T01:54:28.744Z,99.99
2022-11-20T01:55:28.737Z,99.99
2022-11-20T01:56:28.730Z,99.99
2022-11-20T01:57:28.750Z,99.99
2022-11-20T01:58:28.715Z,99.99
2022-11-20T01:59:28.708Z,99.99
2022-11-20T02:00:28.698Z,99.99
2022-11-20T02:01:28.746Z,99.99
2022-11-20T02:02:28.711Z,99.99
2022-11-20T02:03:28.681Z,99.99
2022-11-20T02:04:28.672Z,99.99
2022-11-20T02:05:28.668Z,99.99
2022-11-20T02:06:28.655Z,99.99
2022-11-20T02:07:28.742Z,99.99
2022-11-20T02:08:28.648Z,99.99
2022-11-20T02:09:28.637Z,99.99
2022-11-20T02:10:28.629Z,99.99
2022-11-20T02:11:28.628Z,99.99
2022-11-20T02:12:28.638Z,99.99
2022-11-20T02:13:28.602Z,99.99
2022-11-20T02:14:28.607Z,99.99
2022-11-20T02:15:30.433Z,99.99
2022-11-20T02:16:29.584Z,99.99
2022-11-20T02:17:28.601Z,99.99
2022-11-20T02:18:28.599Z,99.99
2022-11-20T02:19:28.568Z,99.99
2022-11-20T02:20:28.560Z,99.99
2022-11-20T02:21:28.548Z,99.99
2022-11-20T02:22:28.566Z,99.99
2022-11-20T02:23:28.534Z,99.99
2022-11-20T02:24:28.530Z,99.99
2022-11-20T02:25:28.521Z,99.99
2022-11-20T02:26:28.512Z,99.99
2022-11-20T02:27:28.535Z,99.99
2022-11-20T02:28:28.496Z,99.99
2022-11-20T02:29:28.490Z,99.99
2022-11-20T02:30:28.484Z,99.99
2022-11-20T02:31:28.477Z,99.99
2022-11-20T02:32:28.468Z,99.99
2022-11-20T02:33:28.485Z,99.99
2022-11-20T02:34:28.455Z,99.99
2022-11-20T02:35:28.444Z,99.99
2022-11-20T02:36:28.436Z,99.99
2022-11-20T02:37:28.451Z,99.99
2022-11-20T02:38:28.417Z,99.99
2022-11-20T02:39:28.413Z,99.99
2022-11-20T02:40:28.404Z,99.99
2022-11-20T02:41:28.400Z,99.99
2022-11-20T02:42:28.393Z,99.99
2022-11-20T02:43:28.407Z,99.99
2022-11-20T02:44:28.376Z,99.99
2022-11-20T02:45:28.372Z,99.99
2022-11-20T02:46:28.364Z,99.99
2022-11-20T02:47:28.357Z,99.99
2022-11-20T02:48:33.572Z,99.99
2022-11-20T02:49:30.341Z,99.99
2022-11-20T02:50:28.331Z,99.99
2022-11-20T02:51:28.325Z,99.99
2022-11-20T02:52:28.320Z,99.99
2022-11-20T02:53:28.333Z,99.99
2022-11-20T02:54:28.302Z,99.99
2022-11-20T02:55:28.296Z,99.99
2022-11-20T02:56:28.282Z,99.99
2022-11-20T02:57:28.277Z,99.99
2022-11-20T02:58:28.291Z,99.99
2022-11-20T02:59:28.266Z,99.99
2022-11-20T03:00:28.257Z,99.99
2022-11-20T03:01:28.282Z,99.99
2022-11-20T03:02:28.240Z,99.99
2022-11-20T03:03:28.255Z,99.80
2022-11-20T03:04:28.226Z,99.91
2022-11-20T03:05:28.220Z,99.99
2022-11-20T03:06:28.209Z,99.99
2022-11-20T03:07:28.264Z,99.99
2022-11-20T03:08:28.221Z,99.99
2022-11-20T03:09:28.189Z,99.99
2022-11-20T03:10:28.182Z,99.99
2022-11-20T03:11:28.181Z,99.99
2022-11-20T03:12:28.166Z,99.99
2022-11-20T03:13:28.183Z,99.99
2022-11-20T03:14:28.149Z,99.99
2022-11-20T03:15:28.142Z,99.98
2022-11-20T03:16:28.137Z,99.61
2022-11-20T03:17:28.129Z,99.99
2022-11-20T03:18:28.149Z,99.99
2022-11-20T03:19:28.111Z,99.99
2022-11-20T03:20:28.109Z,99.87
2022-11-20T03:21:28.103Z,99.34
2022-11-20T03:22:28.097Z,99.55
2022-11-20T03:23:28.115Z,99.76
2022-11-20T03:24:28.080Z,99.44
2022-11-20T03:25:28.073Z,99.24
2022-11-20T03:26:28.066Z,99.34
2022-11-20T03:27:28.053Z,99.44
2022-11-20T03:28:28.070Z,99.30
2022-11-20T03:29:28.046Z,99.99
2022-11-20T03:30:30.713Z,99.98
2022-11-20T03:31:29.028Z,99.99
2022-11-20T03:32:28.015Z,99.93
2022-11-20T03:33:28.033Z,99.99
2022-11-20T03:34:28.004Z,99.82
2022-11-20T03:35:27.998Z,99.99
2022-11-20T03:36:27.975Z,99.99
2022-11-20T03:37:28.979Z,99.99
2022-11-20T03:38:27.994Z,99.99
2022-11-20T03:39:27.967Z,99.99
2022-11-20T03:40:27.957Z,99.93
2022-11-20T03:41:27.954Z,99.67
2022-11-20T03:42:27.944Z,99.99
2022-11-20T03:43:27.960Z,99.99
2022-11-20T03:44:27.927Z,99.99
2022-11-20T03:45:27.919Z,99.99
2022-11-20T03:46:27.908Z,99.99
2022-11-20T03:47:27.903Z,99.99
2022-11-20T03:48:27.923Z,99.99
2022-11-20T03:49:27.892Z,99.99
2022-11-20T03:50:27.900Z,99.99
2022-11-20T03:51:27.878Z,99.99
2022-11-20T03:52:27.872Z,99.95
2022-11-20T03:53:27.896Z,99.99
2022-11-20T03:54:27.852Z,99.99
2022-11-20T03:55:27.847Z,99.99
2022-11-20T03:56:27.844Z,99.99
2022-11-20T03:57:27.838Z,99.99
2022-11-20T03:58:27.946Z,99.99
2022-11-20T03:59:27.817Z,99.78
2022-11-20T04:00:27.812Z,99.88
2022-11-20T04:01:27.835Z,99.67
2022-11-20T04:02:27.797Z,99.88
2022-11-20T04:03:27.790Z,99.67
2022-11-20T04:04:27.804Z,99.88
2022-11-20T04:05:27.771Z,99.99
2022-11-20T04:06:27.768Z,99.99
2022-11-20T04:07:27.821Z,99.88
2022-11-20T04:08:27.752Z,99.99
2022-11-20T04:09:27.767Z,99.99
2022-11-20T04:10:27.734Z,99.99
2022-11-20T04:11:27.730Z,99.99
2022-11-20T04:12:27.723Z,99.99
2022-11-20T04:13:27.715Z,99.99
2022-11-20T04:14:27.730Z,99.99
2022-11-20T04:15:27.700Z,99.99
2022-11-20T04:16:27.699Z,99.99
2022-11-20T04:17:27.685Z,99.99
2022-11-20T04:18:27.680Z,99.99
2022-11-20T04:19:27.700Z,99.99
2022-11-20T04:20:27.665Z,99.99
2022-11-20T04:21:27.660Z,99.99
2022-11-20T04:22:27.650Z,99.99
2022-11-20T04:23:28.978Z,99.99
2022-11-20T04:24:28.667Z,99.99
2022-11-20T04:25:27.632Z,99.99
2022-11-20T04:26:27.611Z,99.99
2022-11-20T04:27:28.621Z,99.99
2022-11-20T04:28:27.607Z,99.99
2022-11-20T04:29:27.624Z,99.99
2022-11-20T04:30:27.603Z,99.99
2022-11-20T04:31:27.585Z,99.99
2022-11-20T04:32:27.576Z,99.99
2022-11-20T04:33:28.974Z,99.99
2022-11-20T04:34:29.592Z,99.99
2022-11-20T04:35:27.558Z,99.99
2022-11-20T04:36:27.548Z,99.99
2022-11-20T04:37:27.541Z,99.99
2022-11-20T04:38:27.535Z,99.99
2022-11-20T04:39:27.552Z,99.99
2022-11-20T04:40:27.522Z,99.99
2022-11-20T04:41:27.511Z,99.99
2022-11-20T04:42:27.510Z,99.99
2022-11-20T04:43:27.504Z,99.99
2022-11-20T04:44:27.516Z,99.99
2022-11-20T04:45:27.482Z,99.99
2022-11-20T04:46:27.480Z,99.99
2022-11-20T04:47:27.470Z,99.99
2022-11-20T04:48:27.464Z,99.99
2022-11-20T04:49:27.496Z,99.99
2022-11-20T04:50:27.449Z,99.99
2022-11-20T04:51:27.440Z,99.99
2022-11-20T04:52:27.434Z,99.99
2022-11-20T04:53:27.427Z,99.99
2022-11-20T04:54:27.447Z,99.99
2022-11-20T04:55:27.416Z,99.99
2022-11-20T04:56:27.407Z,99.99
2022-11-20T04:57:27.400Z,99.99
2022-11-20T04:58:27.392Z,99.99
2022-11-20T04:59:27.407Z,99.99
2022-11-20T05:00:27.650Z,99.99
2022-11-20T05:01:27.390Z,99.99
2022-11-20T05:02:28.364Z,99.99
2022-11-20T05:03:27.354Z,99.99
2022-11-20T05:04:27.434Z,99.99
2022-11-20T05:05:27.346Z,99.99
2022-11-20T05:06:27.333Z,99.99
2022-11-20T05:07:27.385Z,99.99
2022-11-20T05:08:27.321Z,99.99
2022-11-20T05:09:27.341Z,99.99
2022-11-20T05:10:27.324Z,99.99
2022-11-20T05:11:27.295Z,99.99
2022-11-20T05:12:27.289Z,99.99
2022-11-20T05:13:27.280Z,99.99
2022-11-20T05:14:27.302Z,99.99
2022-11-20T05:15:27.268Z,99.99
2022-11-20T05:16:27.253Z,99.99
2022-11-20T05:17:27.251Z,99.99
2022-11-20T05:18:27.240Z,99.99
2022-11-20T05:19:27.268Z,99.99
2022-11-20T05:20:27.223Z,99.99
2022-11-20T05:21:27.219Z,99.99
2022-11-20T05:22:27.215Z,99.99
2022-11-20T05:23:27.211Z,99.99
2022-11-20T05:24:27.203Z,99.99
2022-11-20T05:25:27.218Z,99.99
2022-11-20T05:26:27.182Z,99.99
2022-11-20T05:27:27.177Z,99.99
2022-11-20T05:28:27.170Z,99.99
2022-11-20T05:29:27.164Z,99.99
2022-11-20T05:30:27.198Z,99.99
2022-11-20T05:31:28.446Z,99.99
2022-11-20T05:32:28.138Z,99.99
2022-11-20T05:33:27.135Z,99.99
2022-11-20T05:34:27.130Z,99.99
2022-11-20T05:35:27.142Z,99.99
2022-11-20T05:36:27.112Z,99.99
2022-11-20T05:37:27.107Z,99.99
2022-11-20T05:38:27.098Z,99.99
2022-11-20T05:39:27.085Z,99.99
2022-11-20T05:40:27.109Z,99.99
2022-11-20T05:41:27.066Z,99.99
2022-11-20T05:42:27.065Z,99.99
2022-11-20T05:43:27.058Z,99.99
2022-11-20T05:44:27.049Z,99.99
2022-11-20T05:45:27.064Z,99.99
2022-11-20T05:46:29.260Z,99.99
2022-11-20T05:47:28.022Z,99.99
2022-11-20T05:48:27.017Z,99.99
2022-11-20T05:49:27.005Z,99.99
2022-11-20T05:50:27.022Z,99.99
2022-11-20T05:51:26.994Z,99.99
2022-11-20T05:52:26.983Z,99.99
2022-11-20T05:53:27.848Z,99.99
2022-11-20T05:54:27.970Z,99.99
2022-11-20T05:55:26.988Z,99.99
2022-11-20T05:56:26.956Z,99.99
2022-11-20T05:57:26.947Z,99.99
2022-11-20T05:58:26.942Z,99.99
2022-11-20T05:59:26.936Z,99.99
2022-11-20T06:00:26.955Z,99.99
2022-11-20T06:01:26.927Z,99.99
2022-11-20T06:02:26.939Z,99.99
2022-11-20T06:03:26.907Z,99.99
2022-11-20T06:04:26.901Z,99.99
2022-11-20T06:05:26.912Z,99.99
2022-11-20T06:06:26.888Z,99.99
2022-11-20T06:07:26.918Z,99.99
2022-11-20T06:08:26.862Z,99.99
2022-11-20T06:09:26.858Z,99.99
2022-11-20T06:10:26.880Z,99.99
2022-11-20T06:11:26.841Z,99.99
2022-11-20T06:12:26.847Z,99.99
2022-11-20T06:13:26.830Z,99.99
2022-11-20T06:14:26.821Z,99.99
2022-11-20T06:15:26.838Z,99.99
2022-11-20T06:16:26.802Z,99.99
2022-11-20T06:17:26.806Z,99.99
2022-11-20T06:18:26.793Z,99.99
2022-11-20T06:19:26.785Z,99.99
2022-11-20T06:20:26.806Z,99.99
2022-11-20T06:21:26.771Z,99.99
2022-11-20T06:22:26.765Z,99.99
2022-11-20T06:23:26.758Z,99.99
2022-11-20T06:24:26.747Z,99.99
2022-11-20T06:25:26.761Z,99.99
2022-11-20T06:26:26.734Z,99.99
2022-11-20T06:27:26.727Z,99.99
2022-11-20T06:28:26.719Z,99.99
2022-11-20T06:29:30.187Z,99.99
2022-11-20T06:30:28.723Z,99.99
2022-11-20T06:31:26.692Z,99.99
2022-11-20T06:32:26.689Z,99.99
2022-11-20T06:33:26.678Z,99.99
2022-11-20T06:34:26.674Z,99.99
2022-11-20T06:35:26.697Z,99.99
2022-11-20T06:36:26.663Z,99.99
2022-11-20T06:37:26.649Z,99.99
2022-11-20T06:38:26.640Z,99.99
2022-11-20T06:39:26.638Z,99.99
2022-11-20T06:40:26.651Z,99.99
2022-11-20T06:41:26.617Z,99.99
2022-11-20T06:42:26.611Z,99.99
2022-11-20T06:43:26.605Z,99.99
2022-11-20T06:44:26.607Z,99.99
2022-11-20T06:45:26.614Z,99.99
2022-11-20T06:46:26.584Z,99.99
2022-11-20T06:47:26.575Z,99.99
2022-11-20T06:48:26.569Z,99.99
2022-11-20T06:49:26.561Z,99.99
2022-11-20T06:50:26.582Z,99.99
2022-11-20T06:51:26.541Z,99.99
2022-11-20T06:52:26.538Z,99.99
2022-11-20T06:53:26.529Z,99.99
2022-11-20T06:54:26.522Z,99.99
2022-11-20T06:55:26.541Z,99.99
2022-11-20T06:56:26.507Z,99.99
2022-11-20T06:57:26.501Z,99.99
2022-11-20T06:58:26.494Z,99.99
2022-11-20T06:59:26.488Z,99.99
2022-11-20T07:00:26.508Z,99.99
2022-11-20T07:01:26.533Z,99.99
2022-11-20T07:02:26.464Z,99.99
2022-11-20T07:03:26.459Z,99.99
2022-11-20T07:04:26.448Z,99.99
2022-11-20T07:05:26.467Z,99.99
2022-11-20T07:06:26.435Z,99.99
2022-11-20T07:07:26.476Z,99.99
2022-11-20T07:08:26.425Z,99.99
2022-11-20T07:09:26.830Z,99.99
2022-11-20T07:10:26.426Z,99.99
2022-11-20T07:11:26.396Z,99.99
2022-11-20T07:12:26.384Z,99.99
2022-11-20T07:13:26.375Z,99.99
2022-11-20T07:14:26.359Z,99.99
2022-11-20T07:15:27.389Z,99.99
2022-11-20T07:16:27.360Z,99.99
2022-11-20T07:17:26.353Z,99.99
2022-11-20T07:18:26.345Z,99.99
2022-11-20T07:19:26.336Z,99.99
2022-11-20T07:20:26.355Z,99.99
2022-11-20T07:21:26.323Z,99.99
2022-11-20T07:22:26.313Z,99.99
2022-11-20T07:23:26.305Z,99.99
2022-11-20T07:24:26.296Z,99.99
2022-11-20T07:25:26.290Z,99.99
2022-11-20T07:26:26.306Z,99.99
2022-11-20T07:27:26.269Z,99.99
2022-11-20T07:28:26.265Z,99.99
2022-11-20T07:29:26.260Z,99.99
2022-11-20T07:30:26.282Z,99.99
2022-11-20T07:31:26.247Z,99.99
2022-11-20T07:32:26.238Z,99.99
2022-11-20T07:33:26.235Z,99.99
2022-11-20T07:34:26.223Z,99.99
2022-11-20T07:35:26.215Z,99.99
2022-11-20T07:36:26.229Z,99.99
2022-11-20T07:37:26.201Z,99.99
2022-11-20T07:38:26.191Z,99.99
2022-11-20T07:39:26.183Z,99.99
2022-11-20T07:40:26.176Z,99.99
2022-11-20T07:41:26.196Z,99.99
2022-11-20T07:42:26.157Z,99.99
2022-11-20T07:43:26.199Z,99.99
2022-11-20T07:44:26.146Z,99.99
2022-11-20T07:45:26.138Z,99.99
2022-11-20T07:46:26.160Z,99.99
2022-11-20T07:47:26.132Z,99.99
2022-11-20T07:48:26.117Z,99.99
2022-11-20T07:49:26.110Z,99.99
2022-11-20T07:50:26.148Z,99.99
2022-11-20T07:51:26.113Z,99.99
2022-11-20T07:52:27.087Z,99.99
2022-11-20T07:53:26.085Z,99.99
2022-11-20T07:54:26.072Z,99.99
2022-11-20T07:55:26.058Z,99.99
2022-11-20T07:56:26.078Z,99.99
2022-11-20T07:57:28.427Z,99.99
2022-11-20T07:58:27.037Z,99.99
2022-11-20T07:59:26.036Z,99.99
2022-11-20T08:00:26.193Z,99.99
2022-11-20T08:01:26.054Z,99.99
2022-11-20T08:02:26.014Z,99.99
2022-11-20T08:03:26.005Z,99.99
2022-11-20T08:04:25.995Z,99.99
2022-11-20T08:05:25.985Z,99.99
2022-11-20T08:06:26.008Z,99.99
2022-11-20T08:07:26.031Z,99.99
2022-11-20T08:08:25.964Z,99.99
2022-11-20T08:09:25.958Z,99.99
2022-11-20T08:10:26.029Z,99.99
2022-11-20T08:11:25.971Z,99.99
2022-11-20T08:12:25.936Z,99.99
2022-11-20T08:13:25.927Z,99.99
2022-11-20T08:14:25.914Z,99.99
2022-11-20T08:15:25.913Z,99.99
2022-11-20T08:16:25.927Z,99.99
2022-11-20T08:17:25.898Z,99.99
2022-11-20T08:18:33.381Z,99.99
2022-11-20T08:19:27.885Z,99.99
2022-11-20T08:20:25.875Z,99.99
2022-11-20T08:21:25.893Z,99.99
2022-11-20T08:22:25.865Z,99.99
2022-11-20T08:23:25.852Z,99.99
2022-11-20T08:24:25.849Z,99.99
2022-11-20T08:25:25.835Z,99.99
2022-11-20T08:26:25.858Z,99.99
2022-11-20T08:27:25.824Z,99.99
2022-11-20T08:28:25.821Z,99.99
2022-11-20T08:29:25.807Z,99.99
2022-11-20T08:30:25.800Z,99.99
2022-11-20T08:31:25.822Z,99.99
2022-11-20T08:32:25.779Z,99.99
2022-11-20T08:33:25.777Z,99.99
2022-11-20T08:34:25.770Z,99.99
2022-11-20T08:35:25.760Z,99.99
2022-11-20T08:36:25.782Z,99.99
2022-11-20T08:37:25.748Z,99.99
2022-11-20T08:38:25.741Z,99.99
2022-11-20T08:39:25.728Z,99.99
2022-11-20T08:40:25.731Z,99.99
2022-11-20T08:41:25.744Z,99.99
2022-11-20T08:42:25.709Z,99.99
2022-11-20T08:43:25.701Z,99.99
2022-11-20T08:44:25.694Z,99.99
2022-11-20T08:45:28.456Z,99.99
2022-11-20T08:46:26.699Z,99.99
2022-11-20T08:47:25.670Z,99.99
2022-11-20T08:48:25.661Z,99.99
2022-11-20T08:49:25.659Z,99.99
2022-11-20T08:50:25.647Z,99.99
2022-11-20T08:51:25.669Z,99.99
2022-11-20T08:52:25.634Z,99.99
2022-11-20T08:53:25.625Z,99.99
2022-11-20T08:54:25.618Z,99.99
2022-11-20T08:55:25.612Z,99.99
2022-11-20T08:56:25.632Z,99.99
2022-11-20T08:57:25.598Z,99.99
2022-11-20T08:58:25.590Z,99.99
2022-11-20T09:00:03.628Z,99.99
2022-11-20T09:00:27.574Z,99.99
2022-11-20T09:01:25.816Z,99.99
2022-11-20T09:02:25.563Z,99.99
2022-11-20T09:03:29.959Z,99.99
2022-11-20T09:04:27.549Z,99.99
2022-11-20T09:05:25.544Z,99.99
2022-11-20T09:06:25.556Z,99.99
2022-11-20T09:07:25.598Z,99.99
2022-11-20T09:08:26.517Z,99.99
2022-11-20T09:09:25.766Z,99.99
2022-11-20T09:10:25.675Z,99.99
2022-11-20T09:11:25.521Z,99.99
2022-11-20T09:12:25.495Z,99.99
2022-11-20T09:13:25.483Z,99.99
2022-11-20T09:14:25.476Z,99.99
2022-11-20T09:15:25.472Z,99.99
2022-11-20T09:16:25.490Z,99.99
2022-11-20T09:17:25.452Z,99.99
2022-11-20T09:18:25.444Z,99.99
2022-11-20T09:19:41.104Z,99.99
2022-11-20T09:20:27.428Z,99.99
2022-11-20T09:21:25.476Z,99.99
2022-11-20T09:22:25.413Z,99.99
2022-11-20T09:23:25.406Z,99.99
2022-11-20T09:24:25.398Z,99.99
2022-11-20T09:25:25.391Z,99.99
2022-11-20T09:26:25.406Z,99.99
2022-11-20T09:27:25.374Z,99.99
2022-11-20T09:28:25.364Z,99.99
2022-11-20T09:29:25.362Z,99.99
2022-11-20T09:30:25.355Z,99.99
2022-11-20T09:31:25.341Z,99.99
2022-11-20T09:32:25.358Z,99.99
2022-11-20T09:33:25.328Z,99.99
2022-11-20T09:34:25.323Z,99.99
2022-11-20T09:35:25.318Z,99.99
2022-11-20T09:36:25.307Z,99.99
2022-11-20T09:37:25.325Z,99.99
2022-11-20T09:38:25.297Z,99.99
2022-11-20T09:39:25.290Z,99.99
2022-11-20T09:40:25.281Z,99.99
2022-11-20T09:41:25.270Z,99.99
2022-11-20T09:42:25.287Z,99.99
2022-11-20T09:43:25.252Z,99.99
2022-11-20T09:44:25.248Z,99.99
2022-11-20T09:45:25.239Z,99.99
2022-11-20T09:46:25.232Z,99.99
2022-11-20T09:47:25.248Z,99.99
2022-11-20T09:48:25.215Z,99.99
2022-11-20T09:49:30.713Z,99.99
2022-11-20T09:50:27.192Z,99.99
2022-11-20T09:51:25.189Z,99.99
2022-11-20T09:52:25.215Z,99.99
2022-11-20T09:53:25.173Z,99.99
2022-11-20T09:54:25.170Z,99.99
2022-11-20T09:55:25.164Z,99.99
2022-11-20T09:56:25.154Z,99.99
2022-11-20T09:57:25.174Z,99.99
2022-11-20T09:58:25.141Z,99.99
2022-11-20T09:59:25.135Z,99.99
2022-11-20T10:00:25.127Z,99.99
2022-11-20T10:01:25.165Z,99.99
2022-11-20T10:02:25.144Z,99.99
2022-11-20T10:03:25.105Z,99.99
2022-11-20T10:04:25.107Z,99.99
2022-11-20T10:05:25.104Z,99.99
2022-11-20T10:06:25.085Z,99.99
2022-11-20T10:07:33.299Z,99.99
2022-11-20T10:08:27.070Z,99.99
2022-11-20T10:09:25.089Z,99.99
2022-11-20T10:10:25.058Z,99.99
2022-11-20T10:11:25.052Z,99.99
2022-11-20T10:12:26.063Z,99.99
2022-11-20T10:13:25.033Z,99.99
2022-11-20T10:14:25.031Z,99.99
2022-11-20T10:15:25.014Z,99.99
2022-11-20T10:16:25.011Z,99.99
2022-11-20T10:17:25.025Z,99.99
2022-11-20T10:18:24.993Z,99.99
2022-11-20T10:19:24.982Z,99.99
2022-11-20T10:20:24.973Z,99.99
2022-11-20T10:21:24.972Z,99.99
2022-11-20T10:22:24.985Z,99.99
2022-11-20T10:23:26.166Z,99.99
2022-11-20T10:24:25.940Z,99.99
2022-11-20T10:25:24.942Z,99.99
2022-11-20T10:26:24.935Z,99.99
2022-11-20T10:27:24.945Z,99.99
2022-11-20T10:28:24.918Z,99.99
2022-11-20T10:29:25.156Z,99.99
2022-11-20T10:30:24.902Z,99.99
2022-11-20T10:31:24.894Z,99.99
2022-11-20T10:32:24.909Z,99.99
2022-11-20T10:33:24.876Z,99.99
2022-11-20T10:34:24.878Z,99.99
2022-11-20T10:35:24.865Z,99.99
2022-11-20T10:36:24.865Z,99.99
2022-11-20T10:37:24.878Z,99.61
2022-11-20T10:38:24.839Z,99.29
2022-11-20T10:39:25.064Z,98.98
2022-11-20T10:40:24.822Z,99.02
2022-11-20T10:41:24.814Z,98.98
2022-11-20T10:42:24.833Z,99.29
2022-11-20T10:43:24.802Z,99.71
2022-11-20T10:44:24.793Z,99.98
2022-11-20T10:45:24.794Z,99.73
2022-11-20T10:46:24.778Z,99.35
2022-11-20T10:47:24.795Z,99.35
2022-11-20T10:48:24.779Z,99.62
2022-11-20T10:49:24.783Z,98.89
2022-11-20T10:50:24.751Z,98.99
2022-11-20T10:51:24.742Z,99.20
2022-11-20T10:52:24.761Z,97.95
2022-11-20T10:53:24.726Z,97.91
2022-11-20T10:54:24.723Z,98.26
2022-11-20T10:55:24.712Z,98.11
2022-11-20T10:56:24.700Z,97.91
2022-11-20T10:57:24.721Z,97.91
2022-11-20T10:58:24.686Z,98.11
2022-11-20T10:59:24.892Z,97.91
2022-11-20T11:00:24.671Z,97.70
2022-11-20T11:01:24.837Z,97.85
2022-11-20T11:02:24.691Z,97.95
2022-11-20T11:03:24.646Z,98.16
2022-11-20T11:04:24.637Z,97.59
2022-11-20T11:05:24.622Z,98.22
2022-11-20T11:06:25.625Z,98.01
2022-11-20T11:07:24.715Z,97.70
2022-11-20T11:08:24.608Z,98.32
2022-11-20T11:09:24.781Z,98.95
2022-11-20T11:10:24.593Z,99.05
2022-11-20T11:11:24.595Z,98.74
2022-11-20T11:12:24.608Z,99.05
2022-11-20T11:13:24.574Z,98.53
2022-11-20T11:14:24.564Z,98.32
2022-11-20T11:15:24.559Z,99.22
2022-11-20T11:16:24.559Z,98.22
2022-11-20T11:17:24.545Z,97.80
2022-11-20T11:18:24.570Z,98.11
2022-11-20T11:19:24.902Z,97.38
2022-11-20T11:20:24.517Z,97.91
2022-11-20T11:21:24.514Z,98.01
2022-11-20T11:22:24.509Z,97.75
2022-11-20T11:23:24.524Z,97.34
2022-11-20T11:24:41.738Z,97.65
2022-11-20T11:25:26.477Z,97.13
2022-11-20T11:26:24.472Z,97.03
2022-11-20T11:27:24.463Z,96.15
2022-11-20T11:28:24.481Z,95.78
2022-11-20T11:29:24.853Z,96.56
2022-11-20T11:30:24.444Z,96.19
2022-11-20T11:31:24.438Z,96.40
2022-11-20T11:32:24.425Z,95.98
2022-11-20T11:33:24.447Z,96.50
2022-11-20T11:34:24.407Z,95.67
2022-11-20T11:35:24.402Z,96.30
2022-11-20T11:36:24.397Z,96.09
2022-11-20T11:37:24.385Z,95.88
2022-11-20T11:38:24.402Z,96.04
2022-11-20T11:39:24.898Z,95.98
2022-11-20T11:40:25.588Z,96.36
2022-11-20T11:41:24.352Z,95.94
2022-11-20T11:42:24.345Z,96.15
2022-11-20T11:43:24.360Z,95.15
2022-11-20T11:44:24.331Z,95.72
2022-11-20T11:45:24.317Z,96.13
2022-11-20T11:46:24.316Z,96.70
2022-11-20T11:47:24.326Z,96.70
2022-11-20T11:48:24.311Z,97.99
2022-11-20T11:49:25.739Z,97.78
2022-11-20T11:50:24.277Z,98.31
2022-11-20T11:51:24.267Z,98.62
2022-11-20T11:52:24.262Z,98.93
2022-11-20T11:53:24.278Z,99.56
2022-11-20T11:54:24.247Z,99.51
2022-11-20T11:55:24.239Z,99.88
2022-11-20T11:56:24.220Z,99.99
2022-11-20T11:57:24.222Z,99.77
2022-11-20T11:58:24.236Z,99.88
2022-11-20T11:59:24.600Z,99.99
2022-11-20T12:00:24.195Z,99.99
2022-11-20T12:01:24.188Z,99.99
2022-11-20T12:02:24.231Z,99.99
2022-11-20T12:03:24.201Z,99.99
2022-11-20T12:04:24.161Z,99.99
2022-11-20T12:05:24.155Z,99.99
2022-11-20T12:06:24.144Z,99.99
2022-11-20T12:07:45.469Z,99.99
2022-11-20T12:08:26.207Z,99.99
2022-11-20T12:09:24.381Z,99.99
2022-11-20T12:10:24.118Z,99.99
2022-11-20T12:11:24.109Z,99.99
2022-11-20T12:12:24.099Z,99.99
2022-11-20T12:13:24.116Z,99.99
2022-11-20T12:14:24.080Z,99.99
2022-11-20T12:15:24.079Z,99.99
2022-11-20T12:16:24.071Z,99.99
2022-11-20T12:17:24.055Z,99.99
2022-11-20T12:18:24.075Z,99.99
2022-11-20T12:19:24.264Z,99.99
2022-11-20T12:20:24.036Z,99.99
2022-11-20T12:21:24.033Z,99.99
2022-11-20T12:22:24.020Z,99.99
2022-11-20T12:23:24.040Z,99.99
2022-11-20T12:24:25.002Z,99.99
2022-11-20T12:25:23.999Z,99.99
2022-11-20T12:26:23.984Z,99.99
2022-11-20T12:27:23.986Z,99.99
2022-11-20T12:28:23.999Z,99.99
2022-11-20T12:29:24.370Z,99.99
2022-11-20T12:30:23.951Z,99.99
2022-11-20T12:31:23.943Z,99.99
2022-11-20T12:32:23.938Z,99.99
2022-11-20T12:33:23.955Z,99.99
2022-11-20T12:34:23.922Z,99.99
2022-11-20T12:35:23.922Z,99.99
2022-11-20T12:36:23.911Z,99.99
2022-11-20T12:37:23.901Z,99.99
2022-11-20T12:38:23.922Z,99.99
2022-11-20T12:39:24.233Z,99.99
2022-11-20T12:40:23.877Z,99.99
2022-11-20T12:41:23.859Z,99.99
2022-11-20T12:42:23.861Z,99.99
2022-11-20T12:43:23.850Z,99.99
2022-11-20T12:44:23.882Z,99.99
2022-11-20T12:45:23.838Z,99.99
2022-11-20T12:46:23.833Z,99.99
2022-11-20T12:47:23.823Z,99.99
2022-11-20T12:48:23.812Z,99.99
2022-11-20T12:49:24.117Z,99.99
2022-11-20T12:50:23.792Z,99.99
2022-11-20T12:51:23.784Z,99.99
2022-11-20T12:52:23.782Z,99.99